CheckWX is a tool to help pilots better visualize weather data.  It is not intended as a substitute for an official pre-flight weather briefing.

08:14:16 UTC

KKLS METAR
Southwest Washington Regional Airport
Kelso, Washington, USA
Current

18 mins ago

KKLS 220756Z AUTO 15004KT 10SM CLR M01/M02 A3015 RMK AO2 SLP213 T10111017 400941039 FZRANO
Observed
Feb-22 @ 07:56 UTC
Wind
  • 150° at 4 KTS
Visibility
10 SM
Flight Rules
VFR
Cloud Levels
  • Clear skies
Temperature
-1°C / 30°F
Dewpoint
-2°C / 28°F
Humidity
93%
Altimeter
30.15" Hg
Pressure
1021.3 hPa
Previous

1 hour ago

KKLS 220656Z AUTO 12003KT 10SM CLR M01/M02 A3015 RMK AO2 SLP215 T10061017 FZRANO
Observed
Feb-22 @ 06:56 UTC
Wind
  • 120° at 3 KTS
Visibility
10 SM
Flight Rules
VFR
Cloud Levels
  • Clear skies
Temperature
-1°C / 30°F
Dewpoint
-2°C / 28°F
Humidity
93%
Altimeter
30.15" Hg
Pressure
1021.5 hPa
Previous

2 hours ago

KKLS 220556Z AUTO 00000KT 10SM CLR 00/M02 A3017 RMK AO2 SLP220 T00001017 10083 20000 51012 FZRANO
Observed
Feb-22 @ 05:56 UTC
Visibility
10 SM
Flight Rules
VFR
Cloud Levels
  • Clear skies
Temperature
C / 32°F
Dewpoint
-2°C / 28°F
Humidity
87%
Altimeter
30.17" Hg
Pressure
1022 hPa